WetterOnline ( https://www.wetteronline.de )

Wetter aktuell Nesselwang

Aktuelles Wetter: Kempten (705m)

6-stündlich | Neueste Meldungen
Ortszeit Temperatur Wetter
So, 15.12. 1:00 2.9° C wolkenlos
Sa, 14.12. 19:00 4.9° C wolkig
Sa, 14.12. 13:00 5.4° C Sprühregen
Sa, 14.12. 7:00 3.9° C Sprühregen
Sa, 14.12. 1:00 2.4° C leicht bewölkt
Fr, 13.12. 19:00 2.8° C Sprühregen
Fr, 13.12. 13:00 3.6° C bewölkt
Fr, 13.12. 7:00 -3.3° C bewölkt
Ortszeit Temperatur Wetter
So, 15.12. 1:30 2.9° C leicht bewölkt
So, 15.12. 1:20 2.9° C leicht bewölkt
So, 15.12. 1:10 2.2° C leicht bewölkt
So, 15.12. 1:00 2.9° C wolkenlos
So, 15.12. 0:40 3.3° C wolkenlos
So, 15.12. 0:30 3.1° C wolkenlos
So, 15.12. 0:00 3.5° C bewölkt
Sa, 14.12. 23:30 4.0° C wolkig
Sa, 14.12. 23:00 5.4° C wolkig
Sa, 14.12. 22:30 6.4° C wolkig
Sa, 14.12. 22:00 7.0° C bewölkt
Ortszeit Relative Feuchte Sichtweite
So, 15.12. 1:00 85% 65 km
Sa, 14.12. 19:00 68% 70 km
Sa, 14.12. 13:00 84% 14 km
Sa, 14.12. 7:00 89% 3.7 km
Sa, 14.12. 1:00 65% 55 km
Fr, 13.12. 19:00 77% 24 km
Fr, 13.12. 13:00 77% 70 km
Fr, 13.12. 7:00 85% 40 km
Ortszeit Relative Feuchte Sichtweite
So, 15.12. 1:30 84% 55 km
So, 15.12. 1:20 84% -
So, 15.12. 1:10 87% -
So, 15.12. 1:00 85% 65 km
So, 15.12. 0:40 84% -
So, 15.12. 0:30 87% 70 km
So, 15.12. 0:00 91% 70 km
Sa, 14.12. 23:30 87% 40 km
Sa, 14.12. 23:00 84% 50 km
Sa, 14.12. 22:30 82% 55 km
Sa, 14.12. 22:00 78% 60 km
Ortszeit Niederschlagsmenge Niederschlagsart
So, 15.12. 1:00 0.1 l/m2 in 6 Std. Regen
Sa, 14.12. 19:00 5 l/m2 in 12 Std. Regen
Sa, 14.12. 13:00 4 l/m2 in 6 Std. Regen
Sa, 14.12. 7:00 2 l/m2 in 12 Std. Schnee, Regen
Sa, 14.12. 1:00 1 l/m2 in 6 Std. Schnee, Regen
Fr, 13.12. 19:00 3 l/m2 in 12 Std. Schnee, Regen
Fr, 13.12. 13:00 2 l/m2 in 6 Std. Regen
Fr, 13.12. 7:00 0.0 l/m2 in 12 Std. -
Ortszeit Niederschlagsmenge Niederschlagsart
So, 15.12. 1:30 0.0 l/m2 in 1 Std. -
So, 15.12. 1:20 keine Meldung -
So, 15.12. 1:10 keine Meldung -
So, 15.12. 1:00 0.0 l/m2 in 1 Std. Regen
So, 15.12. 0:40 keine Meldung -
So, 15.12. 0:30 0.0 l/m2 in 1 Std. -
So, 15.12. 0:00 0.0 l/m2 in 1 Std. -
Sa, 14.12. 23:30 0.0 l/m2 in 1 Std. -
Sa, 14.12. 23:00 0.0 l/m2 in 1 Std. -
Sa, 14.12. 22:30 0.0 l/m2 in 1 Std. -
Sa, 14.12. 22:00 0.0 l/m2 in 1 Std. Regen
Ortszeit Stärke Spitze Richtung
km/h Bft. km/h Grad Sektor
So, 15.12. 1:00 6 1 65 80° O
Sa, 14.12. 19:00 7 2 58 210° SW
Sa, 14.12. 13:00 18 3 83 260° W
Sa, 14.12. 7:00 18 3 40 230° SW
Sa, 14.12. 1:00 14 3 43 210° SW
Fr, 13.12. 19:00 22 4 47 240° SW
Fr, 13.12. 13:00 20 4 46 230° SW
Fr, 13.12. 7:00 9 2 17 110° O
Ortszeit Stärke Spitze Richtung
km/h Bft. km/h Grad Sektor
So, 15.12. 1:30 9 2 15 100° O
So, 15.12. 1:20 9 2 - 100° O
So, 15.12. 1:10 9 2 - 100° O
So, 15.12. 1:00 6 1 11 80° O
So, 15.12. 0:40 4 1 - 100° O
So, 15.12. 0:30 7 2 11 130° SO
So, 15.12. 0:00 4 1 11 80° O
Sa, 14.12. 23:30 7 2 11 90° O
Sa, 14.12. 23:00 6 1 39 190° S
Sa, 14.12. 22:30 11 2 40 260° W
Sa, 14.12. 22:00 15 3 33 260° W
Ortszeit Untergrenze Bedeckung Gattung
total tief tief mittel hoch
So, 15.12. 1:00 - 0/8 0/8 - - -
Sa, 14.12. 19:00 1500 m 8/8 1/8 - - -
Sa, 14.12. 13:00 600 m 7/8 7/8 - - -
Sa, 14.12. 7:00 900 m 7/8 7/8 - - -
Sa, 14.12. 1:00 1500 m 4/8 4/8 - - -
Fr, 13.12. 19:00 690 m 7/8 7/8 - - -
Fr, 13.12. 13:00 810 m 7/8 7/8 - - -
Fr, 13.12. 7:00 2400 m 7/8 6/8 - - -
Ortszeit Bedeckungsgrad in Achtel und Wolkenuntergrenze
So, 15.12. 1:30 3(2400m) 4(3000m) 5(9000m)
So, 15.12. 1:20 3(2400m) 4(3000m) 5(9000m)
So, 15.12. 1:10 2(8700m) 4(9000m)
So, 15.12. 1:00 keine Wolken
So, 15.12. 0:40 keine Wolken
So, 15.12. 0:30 keine Wolken
So, 15.12. 0:00 7(4200m)
Sa, 14.12. 23:30 3(4500m) 7(8700m) 7(9000m)
Sa, 14.12. 23:00 8(8400m) 8(9000m)
Sa, 14.12. 22:30 1(1080m) 7(7500m) 7(8100m)
Sa, 14.12. 22:00 5(600m) 7(1350m) 7(5700m)
Ortszeit Luftdruck NN (hPa) Tendenz (hPa in 3 Std.)
So, 15.12. 1:00 1008 - 0,7
Sa, 14.12. 19:00 1007 - 0,1
Sa, 14.12. 13:00 1002 + 3,7
Sa, 14.12. 7:00 993 - 2,2
Sa, 14.12. 1:00 997 + 0,7
Fr, 13.12. 19:00 993 + 3,8
Fr, 13.12. 13:00 985 + 3,9
Fr, 13.12. 7:00 986 - 4,7
Ortszeit Luftdruck NN (hPa) Tendenz (hPa in 3 Std.)
So, 15.12. 1:30 1008 - 1,1
So, 15.12. 1:20 1008 keine Meldung
So, 15.12. 1:10 1008 keine Meldung
So, 15.12. 1:00 1008 - 0,7
So, 15.12. 0:40 1008 keine Meldung
So, 15.12. 0:30 1009 + 0,2
So, 15.12. 0:00 1009 + 0,8
Sa, 14.12. 23:30 1009 + 1,0
Sa, 14.12. 23:00 1008 + 1,7
Sa, 14.12. 22:30 1008 + 1,5
Sa, 14.12. 22:00 1008 + 1,1
Ortszeit Schneehöhe (cm)
So, 15.12. 1:00 0
Sa, 14.12. 19:00 0
Sa, 14.12. 13:00 0
Sa, 14.12. 7:00 0
Sa, 14.12. 1:00 0
Fr, 13.12. 19:00 -
Fr, 13.12. 13:00 0
Fr, 13.12. 7:00 0
Ortszeit Schneehöhe (cm)
So, 15.12. 1:30 0
So, 15.12. 1:20 0
So, 15.12. 1:10 0
So, 15.12. 1:00 0
So, 15.12. 0:40 0
So, 15.12. 0:30 0
So, 15.12. 0:00 0
Sa, 14.12. 23:30 0
Sa, 14.12. 23:00 0
Sa, 14.12. 22:30 0
Sa, 14.12. 22:00 0
Link zu dieser Seite / Seite empfehlen

Das Wetter in ...